createdAt,value
2018-01-30T00:00:15.326Z,1025.83
2018-01-30T00:01:24.816Z,1025.89
2018-01-30T00:02:33.774Z,1025.89
2018-01-30T00:03:42.471Z,1025.93
2018-01-30T00:04:51.698Z,1025.93
2018-01-30T00:06:01.462Z,1025.99
2018-01-30T00:07:10.155Z,1025.98
2018-01-30T00:08:18.854Z,1025.93
2018-01-30T00:09:27.542Z,1025.94
2018-01-30T00:10:36.770Z,1025.96
2018-01-30T00:11:45.993Z,1026
2018-01-30T00:12:54.682Z,1026
2018-01-30T00:14:03.377Z,1026.01
2018-01-30T00:15:12.070Z,1025.93
2018-01-30T00:16:21.372Z,1025.99
2018-01-30T00:17:30.333Z,1026.02
2018-01-30T00:18:39.022Z,1026.02
2018-01-30T00:19:47.719Z,1025.99
2018-01-30T00:20:56.944Z,1026.05
2018-01-30T00:22:05.905Z,1026.08
2018-01-30T00:23:15.132Z,1026.08
2018-01-30T00:24:24.092Z,1026.04
2018-01-30T00:25:33.057Z,1026.04
2018-01-30T00:26:41.751Z,1026.09
2018-01-30T00:27:50.445Z,1026.11
2018-01-30T00:28:59.408Z,1026.09
2018-01-30T00:30:08.101Z,1026.09
2018-01-30T00:31:17.063Z,1026.11
2018-01-30T00:32:25.751Z,1026.15
2018-01-30T00:33:34.448Z,1026.13
2018-01-30T00:34:43.143Z,1026.19
2018-01-30T00:35:52.371Z,1026.21
2018-01-30T00:37:01.328Z,1026.26
2018-01-30T00:38:10.024Z,1026.28
2018-01-30T00:39:19.248Z,1026.23
2018-01-30T00:40:28.747Z,1026.34
2018-01-30T00:41:37.702Z,1026.28
2018-01-30T00:42:46.924Z,1026.24
2018-01-30T00:43:55.617Z,1026.27
2018-01-30T00:45:04.572Z,1026.3
2018-01-30T00:46:13.260Z,1026.27
2018-01-30T00:47:22.222Z,1026.3
2018-01-30T00:48:30.916Z,1026.3
2018-01-30T00:49:40.146Z,1026.3
2018-01-30T00:50:49.904Z,1026.31
2018-01-30T00:51:58.867Z,1026.3
2018-01-30T00:53:07.827Z,1026.32
2018-01-30T00:54:16.786Z,1026.31
2018-01-30T00:55:25.747Z,1026.33
2018-01-30T00:56:34.708Z,1026.27
2018-01-30T00:57:43.724Z,1026.3
2018-01-30T00:58:52.687Z,1026.29
2018-01-30T01:00:02.179Z,1026.29
2018-01-30T01:01:10.872Z,1026.24
2018-01-30T01:02:19.570Z,1026.19
2018-01-30T01:03:28.526Z,1026.15
2018-01-30T01:04:37.485Z,1026.23
2018-01-30T01:05:46.177Z,1026.2
2018-01-30T01:06:55.402Z,1026.21
2018-01-30T01:08:04.095Z,1026.24
2018-01-30T01:09:12.792Z,1026.18
2018-01-30T01:10:21.755Z,1026.19
2018-01-30T01:11:30.983Z,1026.18
2018-01-30T01:12:39.673Z,1026.23
2018-01-30T01:13:48.363Z,1026.23
2018-01-30T01:14:57.587Z,1026.21
2018-01-30T01:16:06.545Z,1026.24
2018-01-30T01:17:15.238Z,1026.24
2018-01-30T01:18:23.932Z,1026.25
2018-01-30T01:19:32.628Z,1026.24
2018-01-30T01:20:41.847Z,1026.27
2018-01-30T01:21:51.334Z,1026.25
2018-01-30T01:23:00.025Z,1026.22
2018-01-30T01:24:09.519Z,1026.22
2018-01-30T01:25:18.475Z,1026.15
2018-01-30T01:26:27.168Z,1026.18
2018-01-30T01:27:35.860Z,1026.17
2018-01-30T01:28:44.551Z,1026.18
2018-01-30T01:29:53.515Z,1026.13
2018-01-30T01:31:03.011Z,1026.11
2018-01-30T01:32:11.967Z,1026.17
2018-01-30T01:33:20.925Z,1026.11
2018-01-30T01:34:29.884Z,1026.17
2018-01-30T01:35:38.844Z,1026.15
2018-01-30T01:36:47.540Z,1026.09
2018-01-30T01:37:57.032Z,1026.16
2018-01-30T01:39:05.992Z,1026.12
2018-01-30T01:40:14.686Z,1026.15
2018-01-30T01:41:23.644Z,1026.21
2018-01-30T01:42:32.339Z,1026.2
2018-01-30T01:43:41.032Z,1026.24
2018-01-30T01:44:50.520Z,1026.23
2018-01-30T01:45:59.210Z,1026.22
2018-01-30T01:47:07.906Z,1026.23
2018-01-30T01:48:16.870Z,1026.25
2018-01-30T01:49:25.830Z,1026.21
2018-01-30T01:50:35.053Z,1026.19
2018-01-30T01:51:43.744Z,1026.24
2018-01-30T01:52:52.438Z,1026.26
2018-01-30T01:54:01.400Z,1026.27
2018-01-30T01:55:10.358Z,1026.28
2018-01-30T01:56:20.115Z,1026.31
2018-01-30T01:57:29.077Z,1026.34
2018-01-30T01:58:37.767Z,1026.27
2018-01-30T01:59:46.727Z,1026.36
2018-01-30T02:00:55.690Z,1026.36
2018-01-30T02:02:04.646Z,1026.41
2018-01-30T02:03:13.340Z,1026.37
2018-01-30T02:04:22.307Z,1026.43
2018-01-30T02:05:31.003Z,1026.4
2018-01-30T02:06:39.956Z,1026.39
2018-01-30T02:07:48.916Z,1026.38
2018-01-30T02:08:57.873Z,1026.4
2018-01-30T02:10:06.564Z,1026.42
2018-01-30T02:11:15.527Z,1026.43
2018-01-30T02:12:24.220Z,1026.44
2018-01-30T02:13:33.445Z,1026.45
2018-01-30T02:14:42.141Z,1026.45
2018-01-30T02:15:51.097Z,1026.42
2018-01-30T02:17:00.055Z,1026.45
2018-01-30T02:18:09.016Z,1026.42
2018-01-30T02:19:17.710Z,1026.47
2018-01-30T02:20:26.672Z,1026.47
2018-01-30T02:21:35.629Z,1026.48
2018-01-30T02:22:44.589Z,1026.43
2018-01-30T02:23:53.816Z,1026.46
2018-01-30T02:25:02.774Z,1026.44
2018-01-30T02:26:11.731Z,1026.45
2018-01-30T02:27:20.695Z,1026.5
2018-01-30T02:28:29.388Z,1026.42
2018-01-30T02:29:38.348Z,1026.42
2018-01-30T02:30:47.035Z,1026.44
2018-01-30T02:31:55.990Z,1026.44
2018-01-30T02:33:04.951Z,1026.41
2018-01-30T02:34:14.177Z,1026.5
2018-01-30T02:35:23.402Z,1026.5
2018-01-30T02:36:32.410Z,1026.52
2018-01-30T02:37:41.318Z,1026.51
2018-01-30T02:38:50.545Z,1026.47
2018-01-30T02:39:59.500Z,1026.51
2018-01-30T02:41:08.993Z,1026.49
2018-01-30T02:42:17.951Z,1026.52
2018-01-30T02:43:26.647Z,1026.54
2018-01-30T02:44:35.618Z,1026.54
2018-01-30T02:45:44.583Z,1026.53
2018-01-30T02:46:53.280Z,1026.49
2018-01-30T02:48:02.242Z,1026.5
2018-01-30T02:49:11.201Z,1026.55
2018-01-30T02:50:19.898Z,1026.53
2018-01-30T02:51:28.855Z,1026.57
2018-01-30T02:52:38.355Z,1026.59
2018-01-30T02:53:47.312Z,1026.56
2018-01-30T02:54:56.800Z,1026.51
2018-01-30T02:56:05.493Z,1026.49
2018-01-30T02:57:14.192Z,1026.47
2018-01-30T02:58:23.422Z,1026.46
2018-01-30T02:59:32.654Z,1026.53
2018-01-30T03:00:41.347Z,1026.49
2018-01-30T03:01:50.306Z,1026.51
2018-01-30T03:02:59.532Z,1026.53
2018-01-30T03:04:08.500Z,1026.53
2018-01-30T03:05:17.456Z,1026.52
2018-01-30T03:06:26.151Z,1026.5
2018-01-30T03:07:41.113Z,1026.49
2018-01-30T03:08:49.815Z,1026.47
2018-01-30T03:09:58.517Z,1026.41
2018-01-30T03:11:07.487Z,1026.38
2018-01-30T03:12:16.732Z,1026.39
2018-01-30T03:13:25.438Z,1026.38
2018-01-30T03:14:34.408Z,1026.36
2018-01-30T03:15:43.379Z,1026.34
2018-01-30T03:16:52.351Z,1026.34
2018-01-30T03:18:01.321Z,1026.27
2018-01-30T03:19:10.295Z,1026.3
2018-01-30T03:20:18.999Z,1026.25
2018-01-30T03:21:27.970Z,1026.27
2018-01-30T03:22:36.672Z,1026.28
2018-01-30T03:23:45.641Z,1026.29
2018-01-30T03:24:54.610Z,1026.35
2018-01-30T03:26:03.580Z,1026.33
2018-01-30T03:27:12.819Z,1026.37
2018-01-30T03:28:21.794Z,1026.38
2018-01-30T03:29:30.491Z,1026.35
2018-01-30T03:30:40.001Z,1026.36
2018-01-30T03:31:49.256Z,1026.39
2018-01-30T03:32:57.959Z,1026.37
2018-01-30T03:34:06.660Z,1026.4
2018-01-30T03:35:15.638Z,1026.39
2018-01-30T03:36:24.604Z,1026.43
2018-01-30T03:37:33.575Z,1026.46
2018-01-30T03:38:42.546Z,1026.49
2018-01-30T03:39:51.784Z,1026.44
2018-01-30T03:41:00.489Z,1026.41
2018-01-30T03:42:09.465Z,1026.42
2018-01-30T03:43:18.701Z,1026.43
2018-01-30T03:44:27.669Z,1026.42
2018-01-30T03:45:36.904Z,1026.4
2018-01-30T03:46:45.872Z,1026.43
2018-01-30T03:47:55.376Z,1026.41
2018-01-30T03:49:04.349Z,1026.4
2018-01-30T03:50:13.581Z,1026.43
2018-01-30T03:51:22.556Z,1026.38
2018-01-30T03:52:31.793Z,1026.34
2018-01-30T03:53:40.758Z,1026.4
2018-01-30T03:54:50.264Z,1026.46
2018-01-30T03:55:59.237Z,1026.52
2018-01-30T03:57:07.935Z,1026.51
2018-01-30T03:58:16.907Z,1026.59
2018-01-30T03:59:25.875Z,1026.6
2018-01-30T04:00:34.847Z,1026.56
2018-01-30T04:01:43.548Z,1026.56
2018-01-30T04:02:52.253Z,1026.58
2018-01-30T04:04:01.224Z,1026.59
2018-01-30T04:05:09.931Z,1026.57
2018-01-30T04:06:18.634Z,1026.58
2018-01-30T04:07:27.605Z,1026.58
2018-01-30T04:08:36.574Z,1026.71
2018-01-30T04:09:45.542Z,1026.71
2018-01-30T04:10:54.518Z,1026.77
2018-01-30T04:12:03.224Z,1026.74
2018-01-30T04:13:12.462Z,1026.77
2018-01-30T04:14:21.165Z,1026.78
2018-01-30T04:15:30.936Z,1026.78
2018-01-30T04:16:39.639Z,1026.73
2018-01-30T04:17:48.613Z,1026.78
2018-01-30T04:18:57.907Z,1026.79
2018-01-30T04:20:06.828Z,1026.82
2018-01-30T04:21:15.797Z,1026.77
2018-01-30T04:22:24.768Z,1026.8
2018-01-30T04:23:34.002Z,1026.75
2018-01-30T04:24:42.718Z,1026.7
2018-01-30T04:25:51.957Z,1026.69
2018-01-30T04:27:01.199Z,1026.64
2018-01-30T04:28:10.172Z,1026.73
2018-01-30T04:29:19.140Z,1026.75
2018-01-30T04:30:28.645Z,1026.74
2018-01-30T04:31:37.882Z,1026.78
2018-01-30T04:32:46.861Z,1026.77
2018-01-30T04:33:56.105Z,1026.75
2018-01-30T04:35:05.077Z,1026.73
2018-01-30T04:36:13.780Z,1026.73
2018-01-30T04:37:22.484Z,1026.69
2018-01-30T04:38:31.724Z,1026.74
2018-01-30T04:39:40.428Z,1026.78
2018-01-30T04:40:49.669Z,1026.8
2018-01-30T04:41:58.643Z,1026.76
2018-01-30T04:43:07.348Z,1026.78
2018-01-30T04:44:16.053Z,1026.8
2018-01-30T04:45:25.026Z,1026.77
2018-01-30T04:46:33.994Z,1026.76
2018-01-30T04:47:42.965Z,1026.82
2018-01-30T04:48:51.937Z,1026.87
2018-01-30T04:50:01.178Z,1026.89
2018-01-30T04:51:09.884Z,1026.9
2018-01-30T04:52:19.117Z,1026.91
2018-01-30T04:53:28.087Z,1026.9
2018-01-30T04:54:37.054Z,1026.91
2018-01-30T04:55:46.294Z,1026.87
2018-01-30T04:56:54.999Z,1026.87
2018-01-30T04:58:03.972Z,1026.83
2018-01-30T04:59:12.678Z,1026.81
2018-01-30T05:00:21.649Z,1026.83
2018-01-30T05:01:30.617Z,1026.83
2018-01-30T05:02:40.135Z,1026.84
2018-01-30T05:03:48.842Z,1026.83
2018-01-30T05:04:58.079Z,1026.86
2018-01-30T05:06:07.051Z,1026.89
2018-01-30T05:07:16.316Z,1026.87
2018-01-30T05:08:25.258Z,1026.87
2018-01-30T05:09:34.227Z,1026.87
2018-01-30T05:10:42.931Z,1026.87
2018-01-30T05:11:52.444Z,1026.88
2018-01-30T05:13:01.951Z,1026.87
2018-01-30T05:14:10.654Z,1026.88
2018-01-30T05:15:19.362Z,1026.87
2018-01-30T05:16:28.373Z,1026.89
2018-01-30T05:17:37.079Z,1026.87
2018-01-30T05:18:46.051Z,1026.87
2018-01-30T05:19:55.026Z,1026.84
2018-01-30T05:21:04.266Z,1026.8
2018-01-30T05:22:12.968Z,1026.76
2018-01-30T05:23:21.940Z,1026.77
2018-01-30T05:24:30.911Z,1026.77
2018-01-30T05:25:39.615Z,1026.79
2018-01-30T05:26:48.318Z,1026.76
2018-01-30T05:27:57.287Z,1026.73
2018-01-30T05:29:06.257Z,1026.72
2018-01-30T05:30:15.498Z,1026.8
2018-01-30T05:31:24.469Z,1026.82
2018-01-30T05:32:33.168Z,1026.81
2018-01-30T05:33:41.877Z,1026.87
2018-01-30T05:34:51.116Z,1026.88
2018-01-30T05:36:00.082Z,1026.95
2018-01-30T05:37:09.054Z,1027.04
2018-01-30T05:38:17.756Z,1027.05
2018-01-30T05:39:26.723Z,1027.11
2018-01-30T05:40:35.959Z,1026.97
2018-01-30T05:41:45.463Z,1027.02
2018-01-30T05:42:54.167Z,1027.05
2018-01-30T05:44:03.137Z,1027.04
2018-01-30T05:45:11.838Z,1027.08
2018-01-30T05:46:21.130Z,1027.04
2018-01-30T05:47:30.367Z,1027.1
2018-01-30T05:48:39.072Z,1027.14
2018-01-30T05:49:48.043Z,1027.15
2018-01-30T05:50:57.288Z,1027.18
2018-01-30T05:52:06.528Z,1027.17
2018-01-30T05:53:15.774Z,1027.17
2018-01-30T05:54:24.740Z,1027.15
2018-01-30T05:55:33.709Z,1027.14
2018-01-30T05:56:42.678Z,1027.09
2018-01-30T05:57:51.649Z,1027.1
2018-01-30T05:59:00.885Z,1027.1
2018-01-30T06:00:09.851Z,1027.03
2018-01-30T06:01:18.552Z,1027.04
2018-01-30T06:02:27.525Z,1027.03
2018-01-30T06:03:36.230Z,1027.05
2018-01-30T06:04:45.203Z,1027.06
2018-01-30T06:05:54.174Z,1027.06
2018-01-30T06:07:02.880Z,1027.12
2018-01-30T06:08:11.848Z,1027.1
2018-01-30T06:09:20.551Z,1027.15
2018-01-30T06:10:29.255Z,1027.16
2018-01-30T06:11:38.764Z,1027.15
2018-01-30T06:12:47.742Z,1027.2
2018-01-30T06:13:56.980Z,1027.19
2018-01-30T06:15:05.685Z,1027.21
2018-01-30T06:16:14.655Z,1027.22
2018-01-30T06:17:24.214Z,1027.22
2018-01-30T06:18:33.720Z,1027.28
2018-01-30T06:19:43.267Z,1027.26
2018-01-30T06:20:52.502Z,1027.24
2018-01-30T06:22:01.473Z,1027.22
2018-01-30T06:23:10.442Z,1027.2
2018-01-30T06:24:19.678Z,1027.2
2018-01-30T06:25:28.649Z,1027.24
2018-01-30T06:26:37.384Z,1027.26
2018-01-30T06:27:46.319Z,1027.25
2018-01-30T06:28:55.563Z,1027.29
2018-01-30T06:30:04.804Z,1027.27
2018-01-30T06:31:14.040Z,1027.27
2018-01-30T06:32:23.276Z,1027.24
2018-01-30T06:33:31.979Z,1027.24
2018-01-30T06:34:40.952Z,1027.15
2018-01-30T06:35:49.655Z,1027.16
2018-01-30T06:36:58.627Z,1027.19
2018-01-30T06:38:07.876Z,1027.17
2018-01-30T06:39:16.851Z,1027.16
2018-01-30T06:40:25.558Z,1027.17
2018-01-30T06:41:34.798Z,1027.16
2018-01-30T06:42:43.502Z,1027.2
2018-01-30T06:43:52.743Z,1027.15
2018-01-30T06:45:01.984Z,1027.12
2018-01-30T06:46:10.684Z,1027.12
2018-01-30T06:47:19.387Z,1027.12
2018-01-30T06:48:28.094Z,1027.14
2018-01-30T06:49:36.792Z,1027.09
2018-01-30T06:50:45.503Z,1027.02
2018-01-30T06:51:54.477Z,1027.06
2018-01-30T06:53:03.985Z,1027.08
2018-01-30T06:54:12.956Z,1027.02
2018-01-30T06:55:21.927Z,1027.01
2018-01-30T06:56:30.898Z,1026.99
2018-01-30T06:57:39.877Z,1027.02
2018-01-30T06:58:49.114Z,1027.05
2018-01-30T06:59:57.817Z,1026.98
2018-01-30T07:01:07.327Z,1027
2018-01-30T07:02:16.566Z,1027.05
2018-01-30T07:03:25.267Z,1027.02
2018-01-30T07:04:34.504Z,1027.06
2018-01-30T07:05:43.207Z,1027.09
2018-01-30T07:06:52.182Z,1027.08
2018-01-30T07:08:01.423Z,1027.12
2018-01-30T07:09:10.396Z,1027.16
2018-01-30T07:10:19.366Z,1027.2
2018-01-30T07:11:28.336Z,1027.2
2018-01-30T07:12:37.039Z,1027.24
2018-01-30T07:13:46.007Z,1027.32
2018-01-30T07:14:54.980Z,1027.29
2018-01-30T07:16:03.679Z,1027.32
2018-01-30T07:17:12.649Z,1027.29
2018-01-30T07:18:21.351Z,1027.31
2018-01-30T07:19:30.055Z,1027.33
2018-01-30T07:20:39.296Z,1027.33
2018-01-30T07:21:48.531Z,1027.31
2018-01-30T07:22:57.772Z,1027.37
2018-01-30T07:24:06.739Z,1027.37
2018-01-30T07:25:15.711Z,1027.38
2018-01-30T07:26:25.224Z,1027.41
2018-01-30T07:27:34.200Z,1027.42
2018-01-30T07:28:43.439Z,1027.45
2018-01-30T07:29:52.681Z,1027.41
2018-01-30T07:31:01.651Z,1027.44
2018-01-30T07:32:10.355Z,1027.45
2018-01-30T07:33:19.327Z,1027.44
2018-01-30T07:34:28.295Z,1027.44
2018-01-30T07:35:37.802Z,1027.41
2018-01-30T07:36:46.772Z,1027.39
2018-01-30T07:37:55.743Z,1027.4
2018-01-30T07:39:04.997Z,1027.43
2018-01-30T07:40:13.968Z,1027.4
2018-01-30T07:41:22.938Z,1027.42
2018-01-30T07:42:31.640Z,1027.42
2018-01-30T07:43:40.345Z,1027.41
2018-01-30T07:44:49.317Z,1027.38
2018-01-30T07:45:58.014Z,1027.36
2018-01-30T07:47:07.028Z,1027.38
2018-01-30T07:48:16.266Z,1027.36
2018-01-30T07:49:25.503Z,1027.34
2018-01-30T07:50:34.469Z,1027.34
2018-01-30T07:51:43.438Z,1027.35
2018-01-30T07:52:52.464Z,1027.31
2018-01-30T07:54:01.168Z,1027.33
2018-01-30T07:55:09.878Z,1027.33
2018-01-30T07:56:18.851Z,1027.33
2018-01-30T07:57:27.557Z,1027.37
2018-01-30T07:58:36.793Z,1027.36
2018-01-30T07:59:45.765Z,1027.37
2018-01-30T08:00:54.739Z,1027.37
2018-01-30T08:02:03.710Z,1027.39
2018-01-30T08:03:12.680Z,1027.35
2018-01-30T08:04:21.650Z,1027.34
2018-01-30T08:05:30.620Z,1027.35
2018-01-30T08:06:39.323Z,1027.37
2018-01-30T08:07:48.292Z,1027.39
2018-01-30T08:08:57.293Z,1027.38
2018-01-30T08:10:06.236Z,1027.38
2018-01-30T08:11:14.937Z,1027.44
2018-01-30T08:12:24.180Z,1027.39
2018-01-30T08:13:33.154Z,1027.38
2018-01-30T08:14:42.126Z,1027.34
2018-01-30T08:15:51.097Z,1027.33
2018-01-30T08:16:59.801Z,1027.34
2018-01-30T08:18:09.040Z,1027.37
2018-01-30T08:19:18.009Z,1027.34
2018-01-30T08:20:26.981Z,1027.35
2018-01-30T08:21:36.218Z,1027.35
2018-01-30T08:22:44.922Z,1027.33
2018-01-30T08:23:54.164Z,1027.3
2018-01-30T08:25:02.867Z,1027.32
2018-01-30T08:26:11.836Z,1027.34
2018-01-30T08:27:20.811Z,1027.38
2018-01-30T08:28:29.787Z,1027.34
2018-01-30T08:29:39.026Z,1027.4
2018-01-30T08:30:48.267Z,1027.45
2018-01-30T08:31:56.969Z,1027.41
2018-01-30T08:33:06.474Z,1027.42
2018-01-30T08:34:15.446Z,1027.47
2018-01-30T08:35:24.418Z,1027.42
2018-01-30T08:36:33.387Z,1027.44
2018-01-30T08:37:42.624Z,1027.42
2018-01-30T08:38:51.600Z,1027.42
2018-01-30T08:40:00.306Z,1027.42
2018-01-30T08:41:09.278Z,1027.41
2018-01-30T08:42:17.981Z,1027.36
2018-01-30T08:43:26.951Z,1027.38
2018-01-30T08:44:35.930Z,1027.35
2018-01-30T08:45:44.633Z,1027.37
2018-01-30T08:46:53.871Z,1027.38
2018-01-30T08:48:03.116Z,1027.37
2018-01-30T08:49:12.090Z,1027.4
2018-01-30T08:50:21.326Z,1027.43
2018-01-30T08:51:30.565Z,1027.44
2018-01-30T08:52:39.537Z,1027.44
2018-01-30T08:53:48.248Z,1027.46
2018-01-30T08:54:57.222Z,1027.46
2018-01-30T08:56:05.927Z,1027.47
2018-01-30T08:57:15.160Z,1027.44
2018-01-30T08:58:23.865Z,1027.44
2018-01-30T08:59:32.839Z,1027.46
2018-01-30T09:00:41.540Z,1027.43
2018-01-30T09:01:50.516Z,1027.49
2018-01-30T09:02:59.491Z,1027.44
2018-01-30T09:04:09.267Z,1027.42
2018-01-30T09:05:18.240Z,1027.41
2018-01-30T09:06:26.942Z,1027.41
2018-01-30T09:07:36.179Z,1027.4
2018-01-30T09:08:44.881Z,1027.4
2018-01-30T09:09:53.854Z,1027.38
2018-01-30T09:11:03.089Z,1027.39
2018-01-30T09:12:12.062Z,1027.43
2018-01-30T09:13:21.296Z,1027.47
2018-01-30T09:14:30.547Z,1027.51
2018-01-30T09:15:39.504Z,1027.54
2018-01-30T09:16:48.457Z,1027.53
2018-01-30T09:17:57.150Z,1027.54
2018-01-30T09:19:05.842Z,1027.5
2018-01-30T09:20:14.798Z,1027.55
2018-01-30T09:21:23.490Z,1027.55
2018-01-30T09:22:32.713Z,1027.52
2018-01-30T09:23:41.405Z,1027.54
2018-01-30T09:24:50.622Z,1027.55
2018-01-30T09:25:59.314Z,1027.57
2018-01-30T09:27:08.535Z,1027.61
2018-01-30T09:28:17.226Z,1027.59
2018-01-30T09:29:26.449Z,1027.6
2018-01-30T09:30:35.403Z,1027.58
2018-01-30T09:31:44.096Z,1027.61
2018-01-30T09:32:53.600Z,1027.62
2018-01-30T09:34:02.840Z,1027.62
2018-01-30T09:35:12.346Z,1027.66
2018-01-30T09:36:21.859Z,1027.66
2018-01-30T09:37:30.562Z,1027.65
2018-01-30T09:38:39.536Z,1027.63
2018-01-30T09:39:48.510Z,1027.67
2018-01-30T09:40:57.213Z,1027.67
2018-01-30T09:42:05.918Z,1027.69
2018-01-30T09:43:15.151Z,1027.69
2018-01-30T09:44:24.391Z,1027.67
2018-01-30T09:45:33.362Z,1027.66
2018-01-30T09:46:42.336Z,1027.68
2018-01-30T09:47:51.040Z,1027.68
2018-01-30T09:49:00.016Z,1027.7
2018-01-30T09:50:08.998Z,1027.71
2018-01-30T09:51:18.508Z,1027.7
2018-01-30T09:52:27.218Z,1027.7
2018-01-30T09:53:36.992Z,1027.73
2018-01-30T09:54:45.959Z,1027.68
2018-01-30T09:55:54.930Z,1027.63
2018-01-30T09:57:03.903Z,1027.61
2018-01-30T09:58:13.143Z,1027.62
2018-01-30T09:59:22.917Z,1027.57
2018-01-30T10:00:31.622Z,1027.54
2018-01-30T10:01:40.594Z,1027.54
2018-01-30T10:02:49.297Z,1027.58
2018-01-30T10:03:58.270Z,1027.53
2018-01-30T10:05:07.519Z,1027.57
2018-01-30T10:06:16.483Z,1027.55
2018-01-30T10:07:25.453Z,1027.48
2018-01-30T10:08:34.695Z,1027.43
2018-01-30T10:09:43.469Z,1027.39
2018-01-30T10:10:52.104Z,1027.4
2018-01-30T10:12:01.347Z,1027.46
2018-01-30T10:13:10.050Z,1027.47
2018-01-30T10:14:19.021Z,1027.5
2018-01-30T10:15:27.989Z,1027.54
2018-01-30T10:16:36.694Z,1027.58
2018-01-30T10:17:45.399Z,1027.6
2018-01-30T10:18:54.368Z,1027.58
2018-01-30T10:20:03.607Z,1027.58
2018-01-30T10:21:12.910Z,1027.58
2018-01-30T10:22:22.155Z,1027.59
2018-01-30T10:23:31.391Z,1027.63
2018-01-30T10:24:40.367Z,1027.68
2018-01-30T10:25:49.604Z,1027.69
2018-01-30T10:26:58.311Z,1027.74
2018-01-30T10:28:07.286Z,1027.65
2018-01-30T10:29:15.988Z,1027.7
2018-01-30T10:30:24.959Z,1027.72
2018-01-30T10:31:34.196Z,1027.7
2018-01-30T10:32:43.165Z,1027.69
2018-01-30T10:33:52.132Z,1027.72
2018-01-30T10:35:01.375Z,1027.73
2018-01-30T10:36:10.611Z,1027.75
2018-01-30T10:37:19.856Z,1027.75
2018-01-30T10:38:29.367Z,1027.78
2018-01-30T10:39:38.343Z,1027.76
2018-01-30T10:40:47.053Z,1027.77
2018-01-30T10:41:55.750Z,1027.76
2018-01-30T10:43:04.992Z,1027.71
2018-01-30T10:44:13.957Z,1027.68
2018-01-30T10:45:23.208Z,1027.75
2018-01-30T10:46:32.222Z,1027.74
2018-01-30T10:47:40.924Z,1027.82
2018-01-30T10:48:49.896Z,1027.84
2018-01-30T10:49:58.600Z,1027.8
2018-01-30T10:51:07.305Z,1027.76
2018-01-30T10:52:16.276Z,1027.74
2018-01-30T10:53:25.246Z,1027.7
2018-01-30T10:54:33.957Z,1027.74
2018-01-30T10:55:42.926Z,1027.77
2018-01-30T10:56:51.896Z,1027.79
2018-01-30T10:58:01.137Z,1027.87
2018-01-30T10:59:10.110Z,1027.86
2018-01-30T11:00:19.079Z,1027.85
2018-01-30T11:01:28.099Z,1027.88
2018-01-30T11:02:36.802Z,1027.86
2018-01-30T11:03:46.574Z,1027.86
2018-01-30T11:04:55.603Z,1027.82
2018-01-30T11:06:04.514Z,1027.84
2018-01-30T11:07:13.221Z,1027.83
2018-01-30T11:08:22.190Z,1027.79
2018-01-30T11:09:30.892Z,1027.81
2018-01-30T11:10:40.181Z,1027.81
2018-01-30T11:11:49.426Z,1027.77
2018-01-30T11:12:58.660Z,1027.76
2018-01-30T11:14:07.905Z,1027.71
2018-01-30T11:15:17.141Z,1027.67
2018-01-30T11:16:25.846Z,1027.65
2018-01-30T11:17:34.820Z,1027.66
2018-01-30T11:18:43.790Z,1027.6
2018-01-30T11:19:52.759Z,1027.65
2018-01-30T11:21:01.997Z,1027.58
2018-01-30T11:22:10.979Z,1027.59
2018-01-30T11:23:19.943Z,1027.62
2018-01-30T11:24:28.915Z,1027.6
2018-01-30T11:25:38.149Z,1027.52
2018-01-30T11:26:47.120Z,1027.55
2018-01-30T11:27:56.367Z,1027.52
2018-01-30T11:29:05.337Z,1027.45
2018-01-30T11:30:14.036Z,1027.47
2018-01-30T11:31:22.741Z,1027.44
2018-01-30T11:32:31.713Z,1027.36
2018-01-30T11:33:40.417Z,1027.3
2018-01-30T11:34:49.120Z,1027.27
2018-01-30T11:35:58.088Z,1027.33
2018-01-30T11:37:07.592Z,1027.3
2018-01-30T11:38:16.830Z,1027.29
2018-01-30T11:39:25.535Z,1027.27
2018-01-30T11:40:34.236Z,1027.26
2018-01-30T11:41:43.473Z,1027.31
2018-01-30T11:42:52.443Z,1027.27
2018-01-30T11:44:01.412Z,1027.28
2018-01-30T11:45:10.657Z,1027.25
2018-01-30T11:46:19.363Z,1027.22
2018-01-30T11:47:28.603Z,1027.19
2018-01-30T11:48:37.620Z,1027.2
2018-01-30T11:49:46.545Z,1027.18
2018-01-30T11:50:55.519Z,1027.16
2018-01-30T11:52:04.507Z,1027.18
2018-01-30T11:53:13.746Z,1027.15
2018-01-30T11:54:22.740Z,1027.17
2018-01-30T11:55:31.718Z,1027.19
2018-01-30T11:56:40.417Z,1027.17
2018-01-30T11:57:49.390Z,1027.13
2018-01-30T11:58:58.096Z,1027.17
2018-01-30T12:00:07.604Z,1027.14
2018-01-30T12:01:16.576Z,1027.17
2018-01-30T12:02:25.813Z,1027.18
2018-01-30T12:03:34.787Z,1027.16
2018-01-30T12:04:43.758Z,1027.06
2018-01-30T12:05:52.728Z,1027.05
2018-01-30T12:07:01.963Z,1027.08
2018-01-30T12:08:10.960Z,1026.98
2018-01-30T12:09:19.645Z,1026.98
2018-01-30T12:10:28.347Z,1027
2018-01-30T12:11:37.590Z,1026.97
2018-01-30T12:12:46.292Z,1026.97
2018-01-30T12:13:55.002Z,1026.95
2018-01-30T12:15:03.968Z,1026.93
2018-01-30T12:16:12.935Z,1026.89
2018-01-30T12:17:22.169Z,1026.94
2018-01-30T12:18:30.873Z,1026.93
2018-01-30T12:19:39.856Z,1026.93
2018-01-30T12:20:49.357Z,1026.86
2018-01-30T12:21:58.325Z,1026.73
2018-01-30T12:23:07.565Z,1026.81
2018-01-30T12:24:17.071Z,1026.8
2018-01-30T12:25:26.305Z,1026.81
2018-01-30T12:26:35.544Z,1026.77
2018-01-30T12:27:44.248Z,1026.77
2018-01-30T12:28:53.483Z,1026.79
2018-01-30T12:30:02.721Z,1026.7
2018-01-30T12:31:11.960Z,1026.67
2018-01-30T12:32:20.665Z,1026.69
2018-01-30T12:33:29.367Z,1026.66
2018-01-30T12:34:38.612Z,1026.67
2018-01-30T12:35:47.314Z,1026.66
2018-01-30T12:36:56.557Z,1026.66
2018-01-30T12:38:05.802Z,1026.68
2018-01-30T12:39:14.501Z,1026.65
2018-01-30T12:40:23.480Z,1026.62
2018-01-30T12:41:32.183Z,1026.63
2018-01-30T12:42:41.453Z,1026.63
2018-01-30T12:43:50.974Z,1026.54
2018-01-30T12:44:59.677Z,1026.52
2018-01-30T12:46:08.651Z,1026.46
2018-01-30T12:47:17.933Z,1026.43
2018-01-30T12:48:26.903Z,1026.4
2018-01-30T12:49:36.137Z,1026.42
2018-01-30T12:50:44.844Z,1026.44
2018-01-30T12:51:54.614Z,1026.53
2018-01-30T12:53:03.588Z,1026.49
2018-01-30T12:54:12.293Z,1026.56
2018-01-30T12:55:20.994Z,1026.54
2018-01-30T12:56:29.701Z,1026.51
2018-01-30T12:57:39.204Z,1026.51
2018-01-30T12:58:48.454Z,1026.5
2018-01-30T12:59:57.692Z,1026.51
2018-01-30T13:01:06.394Z,1026.49
2018-01-30T13:02:15.101Z,1026.41
2018-01-30T13:03:24.882Z,1026.34
2018-01-30T13:04:34.124Z,1026.26
2018-01-30T13:05:43.097Z,1026.24
2018-01-30T13:06:52.337Z,1026.24
2018-01-30T13:08:01.308Z,1026.18
2018-01-30T13:09:10.548Z,1026.21
2018-01-30T13:10:19.786Z,1026.2
2018-01-30T13:11:29.033Z,1026.24
2018-01-30T13:12:38.005Z,1026.3
2018-01-30T13:13:47.508Z,1026.3
2018-01-30T13:14:56.749Z,1026.26
2018-01-30T13:16:05.720Z,1026.29
2018-01-30T13:17:14.426Z,1026.28
2018-01-30T13:18:23.132Z,1026.33
2018-01-30T13:19:32.098Z,1026.32
2018-01-30T13:20:41.343Z,1026.35
2018-01-30T13:21:50.583Z,1026.37
2018-01-30T13:22:59.557Z,1026.42
2018-01-30T13:24:09.069Z,1026.44
2018-01-30T13:25:18.041Z,1026.48
2018-01-30T13:26:27.014Z,1026.49
2018-01-30T13:27:35.712Z,1026.41
2018-01-30T13:28:44.418Z,1026.38
2018-01-30T13:29:53.386Z,1026.33
2018-01-30T13:31:02.362Z,1026.29
2018-01-30T13:32:11.604Z,1026.31
2018-01-30T13:33:20.574Z,1026.35
2018-01-30T13:34:29.277Z,1026.38
2018-01-30T13:35:38.248Z,1026.36
2018-01-30T13:36:47.546Z,1026.37
2018-01-30T13:37:56.517Z,1026.38
2018-01-30T13:39:05.763Z,1026.31
2018-01-30T13:40:14.470Z,1026.31
2018-01-30T13:41:23.173Z,1026.27
2018-01-30T13:42:31.877Z,1026.24
2018-01-30T13:43:41.116Z,1026.29
2018-01-30T13:44:50.086Z,1026.22
2018-01-30T13:45:59.059Z,1026.17
2018-01-30T13:47:08.026Z,1026.1
2018-01-30T13:48:17.293Z,1026.02
2018-01-30T13:49:25.972Z,1026.07
2018-01-30T13:50:35.207Z,1026.08
2018-01-30T13:51:44.445Z,1026.14
2018-01-30T13:52:53.420Z,1026.15
2018-01-30T13:54:02.124Z,1026.15
2018-01-30T13:55:11.367Z,1026.14
2018-01-30T13:56:20.339Z,1026.1
2018-01-30T13:57:29.049Z,1026.05